RORK(METAR)
05/30 17:51
RORK 300851Z AUTO 12013KT 9999 BKN005 OVC007 25/24 Q1013 RMK
A2993=
戻る
トップページへ戻る
IMOC Co,.Ltd.